createdAt,value
2018-01-27T00:00:09.668Z,0.00
2018-01-27T00:00:58.674Z,0.00
2018-01-27T00:01:58.563Z,0.00
2018-01-27T00:08:02.057Z,0.00
2018-01-27T00:11:14.585Z,0.00
2018-01-27T00:13:51.350Z,0.00
2018-01-27T00:15:11.381Z,0.00
2018-01-27T00:15:47.768Z,0.00
2018-01-27T00:18:35.251Z,0.00
2018-01-27T00:21:00.146Z,0.00
2018-01-27T00:42:25.391Z,0.00
2018-01-27T00:43:23.348Z,0.00
2018-01-27T00:45:18.112Z,0.00
2018-01-27T00:46:18.165Z,0.00
2018-01-27T00:48:13.973Z,0.00
2018-01-27T00:49:13.500Z,0.00
2018-01-27T00:51:08.341Z,0.00
2018-01-27T00:52:07.791Z,0.00
2018-01-27T00:54:04.763Z,0.00
2018-01-27T00:55:03.185Z,0.00
2018-01-27T00:56:04.247Z,0.00
2018-01-27T00:57:03.037Z,0.00
2018-01-27T00:58:03.058Z,0.00
2018-01-27T00:59:03.029Z,0.00
2018-01-27T01:00:04.262Z,0.00
2018-01-27T01:01:04.033Z,0.00
2018-01-27T01:02:02.989Z,0.00
2018-01-27T01:03:02.528Z,0.00
2018-01-27T01:04:03.143Z,0.00
2018-01-27T01:05:02.031Z,0.00
2018-01-27T01:06:02.516Z,0.00
2018-01-27T01:07:05.142Z,0.00
2018-01-27T01:08:02.360Z,0.00
2018-01-27T01:09:03.981Z,0.00
2018-01-27T01:10:03.852Z,0.00
2018-01-27T01:11:02.482Z,0.00
2018-01-27T01:12:02.281Z,0.00
2018-01-27T01:13:03.865Z,0.00
2018-01-27T01:14:02.092Z,0.00
2018-01-27T01:15:02.149Z,0.00
2018-01-27T01:16:02.022Z,0.00
2018-01-27T01:17:02.025Z,0.00
2018-01-27T01:18:02.095Z,0.00
2018-01-27T01:19:01.995Z,0.00
2018-01-27T01:20:02.123Z,0.00
2018-01-27T01:21:02.072Z,0.00
2018-01-27T01:22:02.139Z,0.00
2018-01-27T01:23:18.121Z,0.00
2018-01-27T01:26:08.187Z,0.00
2018-01-27T01:27:02.817Z,0.00
2018-01-27T01:29:33.888Z,0.00
2018-01-27T01:30:33.222Z,0.00
2018-01-27T01:31:33.825Z,0.00
2018-01-27T01:32:34.329Z,0.00
2018-01-27T01:33:33.803Z,0.00
2018-01-27T01:34:33.808Z,0.00
2018-01-27T01:35:33.779Z,0.00
2018-01-27T01:36:34.428Z,0.00
2018-01-27T01:37:34.335Z,0.00
2018-01-27T01:38:33.244Z,0.00
2018-01-27T01:39:33.262Z,0.00
2018-01-27T01:40:33.836Z,0.00
2018-01-27T01:41:34.773Z,0.00
2018-01-27T01:42:33.725Z,0.00
2018-01-27T01:43:33.749Z,0.00
2018-01-27T01:44:34.881Z,0.00
2018-01-27T01:45:33.846Z,0.00
2018-01-27T01:46:33.754Z,0.00
2018-01-27T01:47:34.409Z,0.00
2018-01-27T01:48:33.832Z,0.00
2018-01-27T01:49:34.376Z,0.00
2018-01-27T01:50:37.279Z,0.00
2018-01-27T01:51:45.458Z,0.00
2018-01-27T01:52:32.904Z,0.00
2018-01-27T02:15:41.736Z,0.00
2018-01-27T02:33:23.696Z,0.00
2018-01-27T02:49:36.430Z,0.00
2018-01-27T02:50:34.771Z,0.00
2018-01-27T02:52:31.180Z,0.00
2018-01-27T02:53:31.227Z,0.00
2018-01-27T02:54:30.161Z,0.00
2018-01-27T02:55:31.187Z,0.00
2018-01-27T02:56:30.675Z,0.00
2018-01-27T02:57:31.651Z,0.00
2018-01-27T02:58:31.668Z,0.00
2018-01-27T02:59:30.113Z,0.00
2018-01-27T03:00:31.169Z,0.00
2018-01-27T03:01:30.681Z,0.00
2018-01-27T03:02:31.157Z,0.00
2018-01-27T03:03:30.686Z,0.00
2018-01-27T03:04:31.151Z,0.00
2018-01-27T03:05:31.147Z,0.00
2018-01-27T03:06:30.571Z,0.00
2018-01-27T03:07:30.111Z,0.00
2018-01-27T03:08:31.128Z,0.00
2018-01-27T03:09:29.979Z,0.00
2018-01-27T03:10:30.591Z,0.00
2018-01-27T03:11:30.068Z,0.00
2018-01-27T03:12:31.125Z,0.00
2018-01-27T03:13:31.130Z,0.00
2018-01-27T03:14:29.857Z,0.00
2018-01-27T03:15:29.597Z,0.00
2018-01-27T03:16:29.597Z,0.00
2018-01-27T03:17:29.568Z,0.00
2018-01-27T03:18:29.605Z,0.00
2018-01-27T03:19:29.566Z,0.00
2018-01-27T03:20:29.588Z,0.00
2018-01-27T03:21:29.548Z,0.00
2018-01-27T03:22:29.569Z,0.00
2018-01-27T03:23:29.562Z,0.00
2018-01-27T03:24:29.581Z,0.00
2018-01-27T03:25:29.549Z,0.00
2018-01-27T03:26:29.554Z,0.00
2018-01-27T03:27:29.518Z,0.00
2018-01-27T03:28:29.523Z,0.00
2018-01-27T03:29:29.518Z,0.00
2018-01-27T03:30:29.569Z,0.00
2018-01-27T03:31:29.549Z,0.00
2018-01-27T03:32:29.528Z,0.00
2018-01-27T03:33:29.586Z,0.00
2018-01-27T03:34:29.512Z,0.00
2018-01-27T03:35:29.518Z,0.00
2018-01-27T03:36:29.554Z,0.00
2018-01-27T03:37:29.534Z,0.00
2018-01-27T03:38:31.364Z,0.00
2018-01-27T03:39:29.584Z,0.00
2018-01-27T03:40:29.548Z,0.00
2018-01-27T03:41:29.533Z,0.00
2018-01-27T03:42:29.511Z,0.00
2018-01-27T03:43:29.494Z,0.00
2018-01-27T03:44:29.527Z,0.00
2018-01-27T03:45:29.600Z,0.00
2018-01-27T03:46:29.476Z,0.00
2018-01-27T03:47:29.467Z,0.00
2018-01-27T03:48:29.485Z,0.00
2018-01-27T03:49:29.562Z,0.00
2018-01-27T03:50:29.473Z,0.00
2018-01-27T03:51:29.468Z,0.00
2018-01-27T03:52:29.475Z,0.00
2018-01-27T03:53:29.455Z,0.00
2018-01-27T03:54:29.432Z,0.00
2018-01-27T03:55:29.514Z,0.00
2018-01-27T03:56:29.584Z,0.00
2018-01-27T03:57:29.400Z,0.00
2018-01-27T04:05:39.895Z,0.00
2018-01-27T04:07:45.382Z,0.00
2018-01-27T04:08:57.146Z,0.00
2018-01-27T04:09:44.876Z,0.00
2018-01-27T04:15:47.149Z,0.00
2018-01-27T04:29:37.019Z,0.00
2018-01-27T04:35:52.306Z,0.00
2018-01-27T04:41:47.340Z,0.00
2018-01-27T04:42:49.750Z,0.00
2018-01-27T04:43:45.727Z,0.00
2018-01-27T04:44:44.841Z,0.00
2018-01-27T04:45:44.889Z,0.00
2018-01-27T04:46:46.658Z,0.00
2018-01-27T04:47:44.584Z,0.00
2018-01-27T04:48:44.652Z,0.00
2018-01-27T04:49:44.739Z,0.00
2018-01-27T04:50:44.451Z,0.00
2018-01-27T04:51:44.441Z,0.00
2018-01-27T04:52:44.528Z,0.00
2018-01-27T04:53:44.520Z,0.00
2018-01-27T04:54:44.448Z,0.00
2018-01-27T04:55:44.461Z,0.00
2018-01-27T04:56:44.432Z,0.00
2018-01-27T04:57:44.473Z,0.00
2018-01-27T04:58:44.425Z,0.00
2018-01-27T04:59:44.393Z,0.00
2018-01-27T05:00:44.390Z,0.00
2018-01-27T05:01:44.417Z,0.00
2018-01-27T05:02:44.412Z,0.00
2018-01-27T05:03:44.437Z,0.00
2018-01-27T05:04:44.396Z,0.00
2018-01-27T05:05:44.407Z,0.00
2018-01-27T05:06:44.359Z,0.00
2018-01-27T05:07:44.392Z,0.00
2018-01-27T05:08:44.510Z,0.00
2018-01-27T05:09:44.436Z,0.00
2018-01-27T05:10:44.349Z,0.00
2018-01-27T05:11:44.387Z,0.00
2018-01-27T05:12:44.374Z,0.00
2018-01-27T05:13:44.449Z,0.00
2018-01-27T05:14:44.366Z,0.00
2018-01-27T05:15:44.354Z,0.00
2018-01-27T05:16:44.316Z,0.00
2018-01-27T05:17:44.312Z,0.00
2018-01-27T05:18:44.357Z,0.00
2018-01-27T05:19:44.310Z,0.00
2018-01-27T05:20:45.089Z,0.00
2018-01-27T05:25:33.087Z,0.00
2018-01-27T05:28:27.116Z,0.00
2018-01-27T05:29:26.093Z,0.00
2018-01-27T05:30:27.580Z,0.00
2018-01-27T05:31:31.156Z,0.00
2018-01-27T05:33:59.565Z,0.00
2018-01-27T05:36:58.113Z,0.00
2018-01-27T05:37:58.483Z,0.00
2018-01-27T05:40:32.676Z,0.00
2018-01-27T05:41:25.652Z,0.00
2018-01-27T05:42:37.629Z,0.00
2018-01-27T05:44:52.139Z,0.00
2018-01-27T05:45:51.853Z,0.00
2018-01-27T05:47:49.573Z,0.00
2018-01-27T05:48:50.080Z,0.00
2018-01-27T05:50:48.682Z,0.00
2018-01-27T05:51:45.145Z,0.00
2018-01-27T05:52:43.526Z,0.00
2018-01-27T05:53:43.706Z,0.00
2018-01-27T05:54:43.180Z,0.00
2018-01-27T05:55:43.556Z,0.00
2018-01-27T05:56:44.045Z,0.00
2018-01-27T05:57:44.579Z,0.00
2018-01-27T05:58:43.482Z,0.00
2018-01-27T05:59:44.048Z,0.00
2018-01-27T06:00:42.389Z,0.00
2018-01-27T06:01:42.405Z,0.00
2018-01-27T06:02:44.354Z,0.00
2018-01-27T06:03:42.294Z,0.00
2018-01-27T06:04:42.144Z,0.00
2018-01-27T06:05:42.193Z,0.00
2018-01-27T06:06:42.195Z,0.00
2018-01-27T06:07:44.045Z,0.00
2018-01-27T06:08:42.214Z,0.00
2018-01-27T06:09:42.274Z,0.00
2018-01-27T06:10:42.146Z,0.00
2018-01-27T06:11:42.185Z,0.00
2018-01-27T06:12:42.134Z,0.00
2018-01-27T06:13:42.117Z,0.00
2018-01-27T06:14:42.099Z,0.00
2018-01-27T06:15:42.099Z,0.00
2018-01-27T06:16:42.163Z,0.00
2018-01-27T06:17:42.138Z,0.00
2018-01-27T06:18:42.190Z,0.00
2018-01-27T06:19:42.129Z,0.00
2018-01-27T06:20:42.118Z,0.00
2018-01-27T06:21:43.819Z,0.00
2018-01-27T06:22:42.158Z,0.00
2018-01-27T06:23:42.147Z,0.00
2018-01-27T06:24:43.741Z,0.00
2018-01-27T06:25:42.476Z,0.00
2018-01-27T06:26:42.132Z,0.00
2018-01-27T06:27:42.079Z,0.00
2018-01-27T06:28:43.890Z,0.00
2018-01-27T06:29:41.990Z,0.00
2018-01-27T06:35:05.495Z,4.00
2018-01-27T06:35:45.896Z,4.00
2018-01-27T06:37:53.414Z,0.00
2018-01-27T06:38:40.840Z,4.00
2018-01-27T06:40:36.762Z,0.00
2018-01-27T06:41:36.683Z,4.00
2018-01-27T06:43:31.929Z,4.00
2018-01-27T06:44:31.553Z,8.00
2018-01-27T06:46:27.630Z,12.00
2018-01-27T06:47:26.673Z,12.00
2018-01-27T06:57:06.302Z,32.00
2018-01-27T06:57:56.768Z,36.00
2018-01-27T07:00:36.872Z,44.00
2018-01-27T07:01:37.293Z,44.00
2018-01-27T07:03:32.331Z,52.00
2018-01-27T07:04:31.228Z,56.00
2018-01-27T07:06:26.059Z,68.00
2018-01-27T07:07:26.628Z,76.00
2018-01-27T07:09:19.419Z,88.00
2018-01-27T07:10:20.415Z,100.00
2018-01-27T07:12:14.739Z,112.00
2018-01-27T07:13:14.716Z,120.00
2018-01-27T07:15:09.622Z,132.00
2018-01-27T07:16:10.667Z,140.00
2018-01-27T07:18:07.095Z,148.00
2018-01-27T07:19:07.457Z,156.00
2018-01-27T07:20:08.139Z,164.00
2018-01-27T07:21:07.972Z,176.00
2018-01-27T07:22:07.954Z,184.00
2018-01-27T07:23:06.510Z,196.00
2018-01-27T07:24:06.394Z,208.00
2018-01-27T07:25:06.025Z,216.00
2018-01-27T07:26:06.013Z,220.00
2018-01-27T07:27:06.008Z,228.00
2018-01-27T07:28:06.003Z,236.00
2018-01-27T07:29:06.038Z,248.00
2018-01-27T07:30:06.023Z,256.00
2018-01-27T07:31:05.992Z,268.00
2018-01-27T07:32:05.985Z,276.00
2018-01-27T07:33:17.634Z,284.00
2018-01-27T07:34:15.094Z,288.00
2018-01-27T07:36:00.752Z,288.00
2018-01-27T07:37:00.714Z,292.00
2018-01-27T07:38:55.327Z,324.00
2018-01-27T07:39:54.749Z,368.00
2018-01-27T07:41:57.027Z,532.00
2018-01-27T07:42:55.457Z,744.00
2018-01-27T07:43:55.474Z,1136.00
2018-01-27T07:44:55.048Z,1404.00
2018-01-27T07:45:55.157Z,1600.00
2018-01-27T07:46:55.054Z,1712.00
2018-01-27T07:47:55.009Z,1808.00
2018-01-27T07:48:55.007Z,1952.00
2018-01-27T07:49:54.997Z,2108.00
2018-01-27T07:50:55.017Z,2220.00
2018-01-27T07:51:54.989Z,2332.00
2018-01-27T07:52:55.318Z,2412.00
2018-01-27T07:53:55.015Z,2516.00
2018-01-27T07:54:54.970Z,2620.00
2018-01-27T07:55:54.982Z,2760.00
2018-01-27T07:56:54.979Z,2896.00
2018-01-27T07:57:54.959Z,2956.00
2018-01-27T07:58:55.080Z,3004.00
2018-01-27T07:59:55.726Z,3008.00
2018-01-27T08:00:55.084Z,3028.00
2018-01-27T08:04:13.056Z,3268.00
2018-01-27T08:04:38.088Z,3308.00
2018-01-27T08:06:47.223Z,3312.00
2018-01-27T08:07:45.430Z,3344.00
2018-01-27T08:13:01.827Z,3552.00
2018-01-27T08:15:27.356Z,3580.00
2018-01-27T08:16:27.353Z,3592.00
2018-01-27T08:18:21.818Z,3648.00
2018-01-27T08:19:21.726Z,3664.00
2018-01-27T08:21:17.426Z,3720.00
2018-01-27T08:22:17.440Z,3752.00
2018-01-27T08:24:34.594Z,3820.00
2018-01-27T08:25:14.711Z,3864.00
2018-01-27T08:28:49.473Z,4060.00
2018-01-27T08:29:44.929Z,4092.00
2018-01-27T08:30:43.969Z,4128.00
2018-01-27T08:31:43.425Z,4168.00
2018-01-27T08:32:43.381Z,4188.00
2018-01-27T08:33:42.452Z,4192.00
2018-01-27T08:36:08.381Z,4268.00
2018-01-27T08:37:26.453Z,4272.00
2018-01-27T08:41:51.772Z,4428.00
2018-01-27T08:42:32.535Z,4520.00
2018-01-27T08:44:32.013Z,4576.00
2018-01-27T08:45:32.154Z,4620.00
2018-01-27T08:47:27.058Z,4768.00
2018-01-27T08:48:35.086Z,4796.00
2018-01-27T08:50:20.820Z,4968.00
2018-01-27T08:53:25.584Z,6980.00
2018-01-27T08:54:19.130Z,6668.00
2018-01-27T08:55:20.663Z,6124.00
2018-01-27T08:56:19.667Z,7284.00
2018-01-27T08:57:17.037Z,9328.00
2018-01-27T08:58:16.070Z,9316.00
2018-01-27T08:59:15.936Z,10892.00
2018-01-27T09:00:15.933Z,12912.00
2018-01-27T09:01:15.930Z,13656.00
2018-01-27T09:02:15.970Z,14944.00
2018-01-27T09:03:15.927Z,15936.00
2018-01-27T09:04:15.963Z,17536.00
2018-01-27T09:05:16.003Z,17504.00
2018-01-27T09:06:16.030Z,17024.00
2018-01-27T09:07:17.822Z,15520.00
2018-01-27T09:08:15.980Z,15648.00
2018-01-27T09:09:15.926Z,18208.00
2018-01-27T09:10:15.983Z,25632.00
2018-01-27T09:11:15.928Z,37408.00
2018-01-27T09:12:15.980Z,53152.00
2018-01-27T09:13:15.936Z,52032.00
2018-01-27T09:14:16.010Z,45120.00
2018-01-27T09:15:15.935Z,45920.00
2018-01-27T09:16:15.940Z,41856.00
2018-01-27T09:17:15.943Z,41696.00
2018-01-27T09:18:15.960Z,46880.00
2018-01-27T09:19:15.971Z,41408.00
2018-01-27T09:20:16.086Z,40992.00
2018-01-27T09:21:16.005Z,53376.00
2018-01-27T09:22:17.848Z,57600.00
2018-01-27T09:23:16.212Z,56192.00
2018-01-27T09:24:17.868Z,58272.00
2018-01-27T09:25:16.096Z,56704.00
2018-01-27T09:26:16.024Z,51296.00
2018-01-27T09:27:16.016Z,54016.00
2018-01-27T09:28:16.123Z,59872.00
2018-01-27T09:29:19.887Z,44480.00
2018-01-27T09:32:11.867Z,57856.00
2018-01-27T09:33:07.344Z,46720.00
2018-01-27T09:34:07.350Z,42752.00
2018-01-27T09:35:07.051Z,47776.00
2018-01-27T09:36:07.043Z,38688.00
2018-01-27T09:37:07.047Z,36864.00
2018-01-27T09:38:07.090Z,43648.00
2018-01-27T09:39:07.056Z,51968.00
2018-01-27T09:40:07.073Z,63904.00
2018-01-27T09:41:07.094Z,64544.00
2018-01-27T09:42:07.080Z,64448.00
2018-01-27T09:43:07.169Z,57568.00
2018-01-27T09:44:07.100Z,53952.00
2018-01-27T09:45:07.108Z,51712.00
2018-01-27T09:46:07.114Z,38368.00
2018-01-27T09:47:07.125Z,50464.00
2018-01-27T09:48:07.135Z,65280.00
2018-01-27T09:49:07.158Z,65344.00
2018-01-27T09:50:07.151Z,67360.00
2018-01-27T09:51:07.156Z,65792.00
2018-01-27T09:52:07.173Z,63776.00
2018-01-27T09:53:13.284Z,64288.00
2018-01-27T09:54:09.007Z,65280.00
2018-01-27T09:55:08.975Z,65152.00
2018-01-27T09:56:08.923Z,64768.00
2018-01-27T09:57:07.348Z,68416.00
2018-01-27T09:58:07.268Z,68224.00
2018-01-27T09:59:08.952Z,67936.00
2018-01-27T10:00:07.254Z,69248.00
2018-01-27T10:01:08.981Z,67968.00
2018-01-27T10:02:07.266Z,69248.00
2018-01-27T10:03:07.386Z,71584.00
2018-01-27T10:04:07.302Z,70848.00
2018-01-27T10:05:08.396Z,67200.00
2018-01-27T10:07:55.042Z,69184.00
2018-01-27T10:10:26.293Z,69888.00
2018-01-27T10:11:26.168Z,72160.00
2018-01-27T10:13:21.701Z,73344.00
2018-01-27T10:14:21.865Z,72384.00
2018-01-27T10:16:16.325Z,69248.00
2018-01-27T10:17:16.068Z,68512.00
2018-01-27T10:19:11.679Z,72288.00
2018-01-27T10:20:12.102Z,69184.00
2018-01-27T10:21:11.455Z,68864.00
2018-01-27T10:22:11.495Z,69472.00
2018-01-27T10:23:11.455Z,70272.00
2018-01-27T10:24:11.463Z,72384.00
2018-01-27T10:25:11.474Z,71232.00
2018-01-27T10:26:11.482Z,70912.00
2018-01-27T10:27:11.500Z,67232.00
2018-01-27T10:28:11.547Z,67712.00
2018-01-27T10:29:11.527Z,64128.00
2018-01-27T10:30:11.570Z,64064.00
2018-01-27T10:31:11.611Z,68736.00
2018-01-27T10:32:11.732Z,67456.00
2018-01-27T10:33:11.650Z,51968.00
2018-01-27T10:34:11.587Z,60864.00
2018-01-27T10:35:11.613Z,44832.00
2018-01-27T10:36:11.616Z,20384.00
2018-01-27T10:37:11.629Z,12924.00
2018-01-27T10:38:11.638Z,12892.00
2018-01-27T10:39:11.665Z,10464.00
2018-01-27T10:40:11.675Z,8532.00
2018-01-27T10:41:11.674Z,7580.00
2018-01-27T10:42:11.685Z,9024.00
2018-01-27T10:43:11.698Z,22912.00
2018-01-27T10:44:11.705Z,18560.00
2018-01-27T10:45:11.711Z,68160.00
2018-01-27T10:46:11.724Z,23648.00
2018-01-27T10:47:11.739Z,25408.00
2018-01-27T10:48:11.738Z,14852.00
2018-01-27T10:49:11.742Z,21440.00
2018-01-27T10:50:11.755Z,23232.00
2018-01-27T10:51:11.772Z,23968.00
2018-01-27T10:52:11.767Z,12168.00
2018-01-27T10:53:11.799Z,10360.00
2018-01-27T10:54:11.791Z,10752.00
2018-01-27T10:55:11.846Z,10048.00
2018-01-27T10:56:11.909Z,8252.00
2018-01-27T10:57:11.800Z,7732.00
2018-01-27T10:58:11.882Z,7180.00
2018-01-27T10:59:11.826Z,6080.00
2018-01-27T11:00:11.824Z,5688.00
2018-01-27T11:01:11.816Z,5780.00
2018-01-27T11:02:11.849Z,5584.00
2018-01-27T11:03:11.871Z,5480.00
2018-01-27T11:04:11.840Z,5508.00
2018-01-27T11:05:20.622Z,5652.00
2018-01-27T11:07:14.538Z,4780.00
2018-01-27T11:09:34.219Z,4100.00
2018-01-27T11:10:34.115Z,3728.00
2018-01-27T11:11:34.071Z,3388.00
2018-01-27T11:12:34.055Z,3028.00
2018-01-27T11:13:34.183Z,2616.00
2018-01-27T11:14:34.093Z,2260.00
2018-01-27T11:15:34.044Z,1976.00
2018-01-27T11:16:34.254Z,1800.00
2018-01-27T11:17:34.047Z,1712.00
2018-01-27T11:18:34.048Z,1700.00
2018-01-27T11:19:34.050Z,1664.00
2018-01-27T11:20:34.044Z,1644.00
2018-01-27T11:21:34.047Z,1632.00
2018-01-27T11:22:34.083Z,1656.00
2018-01-27T11:23:34.047Z,1660.00
2018-01-27T11:24:34.542Z,1664.00
2018-01-27T11:25:36.269Z,1672.00
2018-01-27T11:26:34.389Z,1692.00
2018-01-27T11:27:34.441Z,1716.00
2018-01-27T11:28:34.386Z,1704.00
2018-01-27T11:29:49.111Z,1700.00
2018-01-27T11:32:05.379Z,1848.00
2018-01-27T11:33:24.420Z,1980.00
2018-01-27T11:34:58.074Z,2244.00
2018-01-27T11:35:58.042Z,2372.00
2018-01-27T11:37:53.034Z,2556.00
2018-01-27T11:38:52.659Z,2568.00
2018-01-27T11:41:08.988Z,2512.00
2018-01-27T11:45:21.744Z,1972.00
2018-01-27T11:46:21.485Z,1860.00
2018-01-27T11:48:16.162Z,1684.00
2018-01-27T11:49:16.042Z,1676.00
2018-01-27T11:53:45.727Z,1940.00
2018-01-27T11:54:44.747Z,1964.00
2018-01-27T11:55:44.643Z,1900.00
2018-01-27T11:56:44.591Z,1840.00
2018-01-27T11:57:44.457Z,1736.00
2018-01-27T11:58:44.456Z,1772.00
2018-01-27T11:59:44.446Z,1860.00
2018-01-27T12:00:44.464Z,1892.00
2018-01-27T12:01:44.443Z,1844.00
2018-01-27T12:02:44.440Z,1676.00
2018-01-27T12:03:44.445Z,1696.00
2018-01-27T12:04:44.483Z,1764.00
2018-01-27T12:05:44.448Z,1928.00
2018-01-27T12:06:44.436Z,2048.00
2018-01-27T12:07:44.433Z,2192.00
2018-01-27T12:08:44.427Z,2480.00
2018-01-27T12:09:44.424Z,2660.00
2018-01-27T12:10:44.424Z,2848.00
2018-01-27T12:11:44.666Z,3016.00
2018-01-27T12:12:45.750Z,3144.00
2018-01-27T12:13:44.541Z,3424.00
2018-01-27T12:14:45.612Z,3884.00
2018-01-27T12:15:44.536Z,4404.00
2018-01-27T12:16:44.447Z,4628.00
2018-01-27T12:17:44.409Z,4988.00
2018-01-27T12:18:44.436Z,5128.00
2018-01-27T12:19:44.412Z,5376.00
2018-01-27T12:20:44.402Z,5440.00
2018-01-27T12:21:44.408Z,5404.00
2018-01-27T12:22:44.404Z,5308.00
2018-01-27T12:23:44.397Z,5352.00
2018-01-27T12:24:44.408Z,5028.00
2018-01-27T12:25:44.393Z,4728.00
2018-01-27T12:26:44.401Z,4560.00
2018-01-27T12:27:44.396Z,4496.00
2018-01-27T12:28:44.391Z,4456.00
2018-01-27T12:29:44.387Z,4492.00
2018-01-27T12:30:44.387Z,4436.00
2018-01-27T12:31:44.398Z,4500.00
2018-01-27T12:32:44.387Z,4428.00
2018-01-27T12:33:44.417Z,4504.00
2018-01-27T12:34:44.381Z,4192.00
2018-01-27T12:35:44.378Z,3936.00
2018-01-27T12:36:44.377Z,3824.00
2018-01-27T12:37:44.378Z,3768.00
2018-01-27T12:38:44.401Z,3612.00
2018-01-27T12:39:44.375Z,3520.00
2018-01-27T12:40:44.369Z,3452.00
2018-01-27T12:41:44.371Z,3376.00
2018-01-27T12:42:44.365Z,3252.00
2018-01-27T12:43:44.367Z,3224.00
2018-01-27T12:44:44.371Z,3180.00
2018-01-27T12:45:44.392Z,3140.00
2018-01-27T12:46:44.438Z,3088.00
2018-01-27T12:47:44.404Z,3088.00
2018-01-27T12:48:44.497Z,3100.00
2018-01-27T12:49:46.567Z,3008.00
2018-01-27T12:50:55.398Z,2912.00
2018-01-27T12:51:44.384Z,2872.00
2018-01-27T12:52:44.362Z,2932.00
2018-01-27T12:53:44.350Z,3060.00
2018-01-27T12:54:44.358Z,3112.00
2018-01-27T12:55:44.349Z,3140.00
2018-01-27T12:56:44.340Z,3392.00
2018-01-27T12:57:44.356Z,3612.00
2018-01-27T12:58:44.348Z,3328.00
2018-01-27T12:59:44.362Z,3236.00
2018-01-27T13:00:44.340Z,3164.00
2018-01-27T13:01:44.331Z,3024.00
2018-01-27T13:02:44.328Z,3008.00
2018-01-27T13:03:44.379Z,3048.00
2018-01-27T13:04:44.385Z,2880.00
2018-01-27T13:05:44.344Z,3036.00
2018-01-27T13:06:44.318Z,3068.00
2018-01-27T13:07:44.340Z,2932.00
2018-01-27T13:08:44.313Z,2972.00
2018-01-27T13:09:44.313Z,2944.00
2018-01-27T13:10:44.353Z,2852.00
2018-01-27T13:11:44.317Z,2832.00
2018-01-27T13:12:45.308Z,2764.00
2018-01-27T13:13:44.301Z,2740.00
2018-01-27T13:14:44.300Z,2700.00
2018-01-27T13:15:44.297Z,2636.00
2018-01-27T13:16:44.294Z,2584.00
2018-01-27T13:17:44.303Z,2520.00
2018-01-27T13:18:44.295Z,2512.00
2018-01-27T13:19:44.287Z,2536.00
2018-01-27T13:20:44.297Z,2516.00
2018-01-27T13:21:44.282Z,2488.00
2018-01-27T13:22:44.292Z,2432.00
2018-01-27T13:23:44.282Z,2376.00
2018-01-27T13:24:44.275Z,2340.00
2018-01-27T13:25:44.290Z,2164.00
2018-01-27T13:26:44.318Z,2356.00
2018-01-27T13:27:44.281Z,2396.00
2018-01-27T13:28:44.388Z,2432.00
2018-01-27T13:29:44.271Z,2420.00
2018-01-27T13:30:44.259Z,2412.00
2018-01-27T13:31:44.295Z,2476.00
2018-01-27T13:32:44.283Z,2524.00
2018-01-27T13:33:44.326Z,2628.00
2018-01-27T13:34:44.261Z,2800.00
2018-01-27T13:35:44.257Z,2932.00
2018-01-27T13:36:44.247Z,2936.00
2018-01-27T13:37:44.243Z,2992.00
2018-01-27T13:38:44.252Z,3048.00
2018-01-27T13:39:44.242Z,3036.00
2018-01-27T13:40:44.234Z,2968.00
2018-01-27T13:41:44.231Z,3048.00
2018-01-27T13:42:44.227Z,3044.00
2018-01-27T13:43:44.246Z,3052.00
2018-01-27T13:44:44.234Z,2108.00
2018-01-27T13:45:44.223Z,2412.00
2018-01-27T13:46:44.220Z,2992.00
2018-01-27T13:47:44.405Z,3040.00
2018-01-27T13:48:44.213Z,3036.00
2018-01-27T13:49:44.210Z,2316.00
2018-01-27T13:50:44.209Z,1912.00
2018-01-27T13:51:44.219Z,2016.00
2018-01-27T13:52:44.204Z,2412.00
2018-01-27T13:53:44.200Z,1760.00
2018-01-27T13:54:44.204Z,1956.00
2018-01-27T13:55:44.206Z,1672.00
2018-01-27T13:56:44.195Z,1880.00
2018-01-27T13:57:44.191Z,2356.00
2018-01-27T13:58:44.193Z,1488.00
2018-01-27T13:59:44.188Z,2236.00
2018-01-27T14:00:44.183Z,1368.00
2018-01-27T14:01:44.181Z,1488.00
2018-01-27T14:02:44.204Z,1688.00
2018-01-27T14:03:44.177Z,1732.00
2018-01-27T14:04:44.188Z,1784.00
2018-01-27T14:05:44.171Z,2024.00
2018-01-27T14:06:44.167Z,2016.00
2018-01-27T14:07:44.175Z,2592.00
2018-01-27T14:08:44.183Z,2356.00
2018-01-27T14:09:44.162Z,2860.00
2018-01-27T14:10:44.209Z,3052.00
2018-01-27T14:11:44.157Z,2100.00
2018-01-27T14:12:44.153Z,2732.00
2018-01-27T14:13:44.162Z,3080.00
2018-01-27T14:14:44.157Z,1828.00
2018-01-27T14:15:44.182Z,1704.00
2018-01-27T14:16:44.141Z,1744.00
2018-01-27T14:17:44.242Z,1860.00
2018-01-27T14:18:44.412Z,1940.00
2018-01-27T14:19:44.376Z,1844.00
2018-01-27T14:20:44.204Z,1696.00
2018-01-27T14:21:44.216Z,1688.00
2018-01-27T14:22:44.130Z,1864.00
2018-01-27T14:23:44.135Z,2636.00
2018-01-27T14:24:44.142Z,2112.00
2018-01-27T14:25:44.125Z,1916.00
2018-01-27T14:26:44.122Z,1664.00
2018-01-27T14:27:44.115Z,1828.00
2018-01-27T14:28:44.112Z,2920.00
2018-01-27T14:29:44.108Z,2308.00
2018-01-27T14:30:44.107Z,1168.00
2018-01-27T14:31:44.104Z,1176.00
2018-01-27T14:32:44.105Z,1240.00
2018-01-27T14:33:44.102Z,1412.00
2018-01-27T14:34:44.102Z,1572.00
2018-01-27T14:35:44.099Z,1128.00
2018-01-27T14:36:44.107Z,1076.00
2018-01-27T14:37:44.216Z,1104.00
2018-01-27T14:38:44.099Z,1184.00
2018-01-27T14:39:44.093Z,1352.00
2018-01-27T14:40:44.086Z,1408.00
2018-01-27T14:41:44.082Z,2964.00
2018-01-27T14:42:44.075Z,2920.00
2018-01-27T14:43:44.072Z,2924.00
2018-01-27T14:44:44.072Z,2864.00
2018-01-27T14:45:44.113Z,2824.00
2018-01-27T14:46:44.065Z,2720.00
2018-01-27T14:47:44.064Z,2800.00
2018-01-27T14:48:44.086Z,1956.00
2018-01-27T14:49:44.055Z,2688.00
2018-01-27T14:50:44.054Z,2456.00
2018-01-27T14:51:44.132Z,1436.00
2018-01-27T14:52:44.833Z,956.00
2018-01-27T14:53:44.228Z,952.00
2018-01-27T14:54:44.071Z,3852.00
2018-01-27T14:55:44.095Z,3468.00
2018-01-27T14:56:44.124Z,928.00
2018-01-27T14:57:44.186Z,876.00
2018-01-27T14:58:44.229Z,816.00
2018-01-27T14:59:44.350Z,864.00
2018-01-27T15:00:44.030Z,832.00
2018-01-27T15:01:44.038Z,812.00
2018-01-27T15:02:44.029Z,856.00
2018-01-27T15:03:44.016Z,836.00
2018-01-27T15:04:44.012Z,808.00
2018-01-27T15:05:44.008Z,828.00
2018-01-27T15:06:44.550Z,848.00
2018-01-27T15:07:44.399Z,840.00
2018-01-27T15:08:46.010Z,776.00
2018-01-27T15:09:44.281Z,740.00
2018-01-27T15:10:44.002Z,716.00
2018-01-27T15:11:44.098Z,692.00
2018-01-27T15:12:43.990Z,656.00
2018-01-27T15:13:44.000Z,624.00
2018-01-27T15:14:43.988Z,616.00
2018-01-27T15:15:43.983Z,620.00
2018-01-27T15:16:43.978Z,632.00
2018-01-27T15:17:43.970Z,648.00
2018-01-27T15:18:43.966Z,612.00
2018-01-27T15:19:43.963Z,576.00
2018-01-27T15:20:43.970Z,560.00
2018-01-27T15:21:43.961Z,544.00
2018-01-27T15:22:44.188Z,544.00
2018-01-27T15:23:45.027Z,528.00
2018-01-27T15:24:53.785Z,508.00
2018-01-27T15:26:38.611Z,504.00
2018-01-27T15:27:38.553Z,496.00
2018-01-27T15:29:38.536Z,464.00
2018-01-27T15:30:38.430Z,448.00
2018-01-27T15:31:36.615Z,444.00
2018-01-27T15:32:41.335Z,428.00
2018-01-27T15:35:03.710Z,392.00
2018-01-27T15:36:03.821Z,376.00
2018-01-27T15:37:58.191Z,348.00
2018-01-27T15:38:57.981Z,328.00
2018-01-27T15:40:52.445Z,300.00
2018-01-27T15:41:52.446Z,288.00
2018-01-27T15:42:52.437Z,272.00
2018-01-27T15:43:52.374Z,256.00
2018-01-27T15:44:52.416Z,244.00
2018-01-27T15:45:52.271Z,228.00
2018-01-27T15:46:52.298Z,220.00
2018-01-27T15:47:52.602Z,204.00
2018-01-27T15:48:52.240Z,192.00
2018-01-27T15:49:52.279Z,184.00
2018-01-27T15:50:52.318Z,172.00
2018-01-27T15:51:52.499Z,164.00
2018-01-27T15:53:01.016Z,152.00
2018-01-27T15:54:49.542Z,136.00
2018-01-27T15:55:49.284Z,124.00
2018-01-27T15:56:49.207Z,116.00
2018-01-27T15:57:50.330Z,108.00
2018-01-27T15:58:50.734Z,100.00
2018-01-27T15:59:49.032Z,92.00
2018-01-27T16:00:49.100Z,84.00
2018-01-27T16:01:49.039Z,76.00
2018-01-27T16:02:49.029Z,72.00
2018-01-27T16:03:49.024Z,60.00
2018-01-27T16:04:49.018Z,56.00
2018-01-27T16:05:49.011Z,48.00
2018-01-27T16:06:49.034Z,40.00
2018-01-27T16:07:49.035Z,36.00
2018-01-27T16:08:48.991Z,36.00
2018-01-27T16:09:49.062Z,28.00
2018-01-27T16:10:49.069Z,24.00
2018-01-27T16:11:48.975Z,24.00